Time;durP1;ratioP1;P1;durP2;ratioP2;P2;SDS_P1;SDS_P2;PMS_P1;PMS_P2;Temp;Humidity;BMP_temperature;BMP_pressure;BME280_temperature;BME280_humidity;BME280_pressure;Samples;Min_cycle;Max_cycle;Signal;HPM_P1;HPM_P2
2023/11/28 00:01:45;;;;;;;12.00;9.50;;;;;;;-1.70;100.00;97790.40;109468;1250;59782;-64
2023/11/28 00:04:12;;;;;;;12.30;10.60;;;;;;;-1.71;100.00;97792.59;109519;1249;60105;-64
2023/11/28 00:06:39;;;;;;;18.00;10.10;;;;;;;-1.72;100.00;97794.13;109516;1250;75487;-69
2023/11/28 00:09:06;;;;;;;14.60;10.50;;;;;;;-1.75;100.00;97800.63;109505;1250;66973;-66
2023/11/28 00:11:33;;;;;;;12.50;9.80;;;;;;;-1.77;100.00;97803.40;109479;1250;59974;-67
2023/11/28 00:13:59;;;;;;;11.40;8.70;;;;;;;-1.78;100.00;97807.02;109491;1251;60951;-67
2023/11/28 00:16:26;;;;;;;13.40;9.70;;;;;;;-1.80;100.00;97803.17;109525;1251;60120;-69
2023/11/28 00:18:52;;;;;;;13.20;9.50;;;;;;;-1.81;100.00;97799.59;109594;1250;75849;-69
2023/11/28 00:21:19;;;;;;;12.70;10.00;;;;;;;-1.80;100.00;97799.02;109661;1251;66786;-69
2023/11/28 00:23:45;;;;;;;10.90;9.30;;;;;;;-1.78;100.00;97792.78;109646;1251;72477;-69
2023/11/28 00:26:12;;;;;;;11.90;9.70;;;;;;;-1.78;100.00;97787.70;109566;1250;59655;-69
2023/11/28 00:28:46;;;;;;;11.20;8.70;;;;;;;-1.79;100.00;97791.80;109418;1251;60029;-69
2023/11/28 00:31:13;;;;;;;13.40;9.70;;;;;;;-1.81;100.00;97791.95;109636;1250;75616;-68
2023/11/28 00:33:40;;;;;;;11.50;9.30;;;;;;;-1.83;100.00;97792.10;109671;1251;67901;-70
2023/11/28 00:36:06;;;;;;;11.70;8.90;;;;;;;-1.85;100.00;97789.88;109602;1250;72470;-68
2023/11/28 00:38:35;;;;;;;10.10;9.10;;;;;;;-1.86;100.00;97786.50;109407;1251;61021;-68
2023/11/28 00:41:01;;;;;;;12.50;9.50;;;;;;;-1.89;100.00;97788.30;109564;1253;59920;-68
2023/11/28 00:43:28;;;;;;;10.70;9.70;;;;;;;-1.89;100.00;97791.09;109564;1251;75282;-70
2023/11/28 00:45:55;;;;;;;11.70;9.80;;;;;;;-1.88;100.00;97788.36;109550;1251;67753;-69
2023/11/28 00:48:22;;;;;;;10.70;8.50;;;;;;;-1.88;100.00;97783.47;109637;1251;59723;-69
2023/11/28 00:50:50;;;;;;;12.30;9.30;;;;;;;-1.88;100.00;97776.95;109606;1250;59760;-67
2023/11/28 00:53:17;;;;;;;11.50;9.90;;;;;;;-1.91;100.00;97776.01;109568;1249;60367;-69
2023/11/28 00:55:44;;;;;;;12.10;9.30;;;;;;;-1.95;100.00;97774.59;109598;1251;75040;-69
2023/11/28 00:58:11;;;;;;;10.60;9.30;;;;;;;-2.00;100.00;97774.81;109538;1251;67981;-70
2023/11/28 01:00:37;;;;;;;12.60;8.80;;;;;;;-2.06;100.00;97771.39;109588;1250;59767;-68
2023/11/28 01:03:04;;;;;;;12.20;9.30;;;;;;;-2.13;100.00;97764.67;109554;1250;59793;-70
2023/11/28 01:05:31;;;;;;;13.00;8.90;;;;;;;-2.20;100.00;97761.83;109594;1251;60384;-69
2023/11/28 01:07:58;;;;;;;9.10;8.10;;;;;;;-2.26;100.00;97756.98;109601;1250;75392;-68
2023/11/28 01:10:24;;;;;;;9.50;8.40;;;;;;;-2.33;100.00;97757.98;109630;1250;66536;-70
2023/11/28 01:12:51;;;;;;;10.20;9.00;;;;;;;-2.41;100.00;97763.23;109602;1250;72440;-69
2023/11/28 01:15:18;;;;;;;11.20;9.40;;;;;;;-2.47;100.00;97760.44;109642;1250;60227;-67
2023/11/28 01:17:44;;;;;;;11.70;9.80;;;;;;;-2.52;100.00;97761.64;109632;1252;60065;-69
2023/11/28 01:20:11;;;;;;;11.90;9.90;;;;;;;-2.56;100.00;97756.40;109634;1250;74066;-67
2023/11/28 01:22:38;;;;;;;12.70;9.20;;;;;;;-2.59;100.00;97762.25;109687;1250;67663;-69
2023/11/28 01:25:05;;;;;;;15.10;10.40;;;;;;;-2.57;100.00;97759.69;109663;1251;71546;-66
2023/11/28 01:27:32;;;;;;;10.50;9.40;;;;;;;-2.53;100.00;97761.43;109631;1251;61161;-68
2023/11/28 01:29:58;;;;;;;11.60;9.50;;;;;;;-2.47;100.00;97761.56;109634;1250;60315;-69
2023/11/28 01:32:25;;;;;;;13.10;10.40;;;;;;;-2.43;100.00;97761.42;109636;1251;73871;-67
2023/11/28 01:34:51;;;;;;;11.70;10.20;;;;;;;-2.40;100.00;97759.27;109675;1250;66783;-70
2023/11/28 01:37:19;;;;;;;12.60;10.30;;;;;;;-2.37;100.00;97761.61;109637;1251;72431;-68
2023/11/28 01:39:45;;;;;;;11.20;9.50;;;;;;;-2.33;100.00;97762.52;109623;1251;59769;-67
2023/11/28 01:42:13;;;;;;;9.60;8.60;;;;;;;-2.27;100.00;97763.55;109602;1251;60070;-72
2023/11/28 01:44:39;;;;;;;10.60;9.50;;;;;;;-2.22;100.00;97767.39;109640;1250;74774;-69
2023/11/28 01:47:06;;;;;;;12.70;9.40;;;;;;;-2.16;100.00;97771.41;109584;1250;59797;-69
2023/11/28 01:49:34;;;;;;;12.30;8.90;;;;;;;-2.12;100.00;97768.77;109526;1253;71267;-70
2023/11/28 01:52:02;;;;;;;11.10;9.10;;;;;;;-2.07;100.00;97772.89;109619;1250;59845;-67
2023/11/28 01:54:29;;;;;;;9.60;8.50;;;;;;;-2.03;100.00;97778.41;109599;1251;59846;-69
2023/11/28 01:56:56;;;;;;;10.70;8.90;;;;;;;-1.98;100.00;97781.98;109654;1250;59759;-71
2023/11/28 01:59:22;;;;;;;10.80;8.80;;;;;;;-1.94;100.00;97782.02;109582;1251;66808;-70
2023/11/28 02:01:50;;;;;;;10.20;9.10;;;;;;;-1.91;100.00;97784.13;109538;1254;60134;-67
2023/11/28 02:04:16;;;;;;;10.50;9.40;;;;;;;-1.88;100.00;97779.66;109496;1250;59720;-68
2023/11/28 02:06:44;;;;;;;12.00;9.70;;;;;;;-1.86;100.00;97777.77;109620;1251;59827;-68
2023/11/28 02:09:10;;;;;;;10.70;9.60;;;;;;;-1.84;100.00;97783.16;109688;1251;75347;-69
2023/11/28 02:11:37;;;;;;;10.10;8.60;;;;;;;-1.83;100.00;97777.42;109655;1250;59769;-67
2023/11/28 02:14:04;;;;;;;13.70;9.80;;;;;;;-1.84;100.00;97777.61;109626;1251;71489;-70
2023/11/28 02:16:31;;;;;;;10.20;9.10;;;;;;;-1.84;100.00;97777.77;109656;1251;59770;-71
2023/11/28 02:18:58;;;;;;;11.60;10.10;;;;;;;-1.83;100.00;97777.56;109546;1250;59871;-70
2023/11/28 02:21:24;;;;;;;11.40;9.10;;;;;;;-1.82;100.00;97777.62;109729;1251;59922;-71
2023/11/28 02:23:51;;;;;;;11.80;10.20;;;;;;;-1.77;100.00;97779.66;109635;1251;59821;-68
2023/11/28 02:26:27;;;;;;;13.90;9.70;;;;;;;-1.74;100.00;97779.69;109510;1251;72890;-68
2023/11/28 02:28:54;;;;;;;13.70;9.50;;;;;;;-1.72;100.00;97781.73;109589;1251;60196;-70
2023/11/28 02:31:21;;;;;;;14.10;10.30;;;;;;;-1.72;100.00;97779.30;109680;1251;60504;-70
2023/11/28 02:33:48;;;;;;;12.90;9.90;;;;;;;-1.71;100.00;97782.90;109691;1251;75619;-70
2023/11/28 02:36:15;;;;;;;10.50;8.80;;;;;;;-1.70;100.00;97783.70;109591;1250;68020;-66
2023/11/28 02:38:41;;;;;;;16.00;10.90;;;;;;;-1.72;100.00;97781.20;109648;1251;72691;-67
2023/11/28 02:41:08;;;;;;;13.00;11.00;;;;;;;-1.74;100.00;97774.47;109684;1251;59714;-69
2023/11/28 02:43:34;;;;;;;12.40;10.00;;;;;;;-1.77;100.00;97773.34;109720;1251;59690;-71
2023/11/28 02:46:01;;;;;;;12.60;9.10;;;;;;;-1.79;100.00;97773.36;109592;1252;75485;-67
2023/11/28 02:48:28;;;;;;;12.00;8.80;;;;;;;-1.80;100.00;97770.11;109668;1251;68684;-67
2023/11/28 02:50:55;;;;;;;9.90;8.50;;;;;;;-1.80;100.00;97772.90;109683;1250;72594;-70
2023/11/28 02:53:22;;;;;;;10.20;7.70;;;;;;;-1.77;100.00;97771.99;109574;1251;59826;-70
2023/11/28 02:55:48;;;;;;;11.10;8.50;;;;;;;-1.75;100.00;97766.77;109688;1251;59793;-70
2023/11/28 02:58:15;;;;;;;10.70;8.40;;;;;;;-1.73;100.00;97764.12;109665;1251;75453;-69
2023/11/28 03:00:41;;;;;;;10.80;8.90;;;;;;;-1.72;100.00;97763.83;109674;1251;67897;-67
2023/11/28 03:03:08;;;;;;;11.90;8.30;;;;;;;-1.72;100.00;97761.25;109653;1251;72378;-70
2023/11/28 03:05:35;;;;;;;10.90;9.10;;;;;;;-1.73;100.00;97762.90;109560;1251;59753;-67
2023/11/28 03:08:01;;;;;;;10.70;8.90;;;;;;;-1.73;100.00;97764.30;109633;1254;60221;-69
2023/11/28 03:10:28;;;;;;;12.40;9.70;;;;;;;-1.75;100.00;97760.45;109544;1251;73983;-67
2023/11/28 03:12:55;;;;;;;14.80;10.00;;;;;;;-1.76;100.00;97759.17;109618;1250;59811;-67
2023/11/28 03:15:21;;;;;;;18.80;9.60;;;;;;;-1.77;100.00;97755.95;109650;1250;59847;-69
2023/11/28 03:17:48;;;;;;;15.90;9.90;;;;;;;-1.76;100.00;97753.61;109648;1251;59820;-71
2023/11/28 03:20:14;;;;;;;11.10;9.30;;;;;;;-1.74;100.00;97754.28;109628;1250;59829;-66
2023/11/28 03:22:41;;;;;;;12.40;10.60;;;;;;;-1.71;100.00;97750.27;109580;1250;73441;-69
2023/11/28 03:25:09;;;;;;;11.10;9.90;;;;;;;-1.71;100.00;97743.98;109630;1250;66589;-69
2023/11/28 03:27:36;;;;;;;10.70;9.30;;;;;;;-1.72;100.00;97744.73;109612;1250;72479;-69
2023/11/28 03:30:04;;;;;;;14.10;9.90;;;;;;;-1.72;100.00;97745.98;109640;1250;59842;-69
2023/11/28 03:32:31;;;;;;;12.70;10.40;;;;;;;-1.73;100.00;97742.20;109557;1251;59974;-69
2023/11/28 03:34:58;;;;;;;11.30;10.00;;;;;;;-1.75;100.00;97741.57;109605;1251;73957;-70
2023/11/28 03:37:25;;;;;;;11.90;10.30;;;;;;;-1.77;100.00;97740.66;109638;1251;67811;-67
2023/11/28 03:39:52;;;;;;;11.50;10.10;;;;;;;-1.80;100.00;97738.48;109610;1251;71401;-69
2023/11/28 03:42:19;;;;;;;12.60;10.30;;;;;;;-1.82;100.00;97735.88;109639;1249;59949;-67
2023/11/28 03:44:46;;;;;;;10.80;9.30;;;;;;;-1.82;100.00;97732.39;109638;1251;59701;-70
2023/11/28 03:47:13;;;;;;;11.10;9.50;;;;;;;-1.79;100.00;97736.90;109567;1251;74007;-68
2023/11/28 03:49:40;;;;;;;12.40;9.20;;;;;;;-1.77;100.00;97735.61;109652;1251;67632;-70
2023/11/28 03:52:06;;;;;;;11.90;9.70;;;;;;;-1.74;100.00;97739.55;109636;1251;59892;-70
2023/11/28 03:54:33;;;;;;;11.20;9.60;;;;;;;-1.72;100.00;97741.95;109504;1251;59839;-70
2023/11/28 03:56:59;;;;;;;11.40;9.60;;;;;;;-1.74;100.00;97736.93;109623;1251;59809;-68
2023/11/28 03:59:26;;;;;;;13.70;10.10;;;;;;;-1.79;100.00;97740.02;109665;1250;73940;-67
2023/11/28 04:01:53;;;;;;;11.90;9.90;;;;;;;-1.85;100.00;97734.64;109596;1251;66506;-69
2023/11/28 04:04:19;;;;;;;11.20;9.90;;;;;;;-1.95;100.00;97732.84;109476;1253;72487;-69
2023/11/28 04:06:46;;;;;;;12.50;10.00;;;;;;;-2.03;100.00;97735.16;109615;1250;60990;-70
2023/11/28 04:09:13;;;;;;;12.00;10.30;;;;;;;-2.09;100.00;97739.84;109679;1251;59908;-69
2023/11/28 04:11:40;;;;;;;12.30;10.20;;;;;;;-2.13;100.00;97743.20;109647;1251;73975;-66
2023/11/28 04:14:07;;;;;;;11.30;10.10;;;;;;;-2.15;100.00;97742.81;109592;1251;59765;-66
2023/11/28 04:16:35;;;;;;;13.20;10.50;;;;;;;-2.16;100.00;97740.50;109579;1251;72704;-68
2023/11/28 04:19:02;;;;;;;11.60;10.40;;;;;;;-2.18;100.00;97738.57;109651;1251;59846;-70
2023/11/28 04:21:29;;;;;;;12.90;10.80;;;;;;;-2.21;100.00;97735.16;109755;1250;60221;-70
2023/11/28 04:23:55;;;;;;;12.60;11.20;;;;;;;-2.25;100.00;97729.27;109687;1250;75294;-73
2023/11/28 04:26:22;;;;;;;13.60;11.20;;;;;;;-2.29;100.00;97730.86;109533;1251;67762;-68
2023/11/28 04:28:49;;;;;;;11.80;10.60;;;;;;;-2.34;100.00;97729.57;109614;1251;71351;-67
2023/11/28 04:31:17;;;;;;;12.70;10.90;;;;;;;-2.39;100.00;97725.54;109560;1251;59832;-68
2023/11/28 04:33:46;;;;;;;12.20;10.10;;;;;;;-2.46;100.00;97721.44;109507;1256;60788;-71
2023/11/28 04:36:14;;;;;;;12.20;10.50;;;;;;;-2.51;100.00;97721.51;109609;1251;74101;-70
2023/11/28 04:38:41;;;;;;;14.30;11.90;;;;;;;-2.56;100.00;97718.58;109596;1250;67642;-69
2023/11/28 04:41:11;;;;;;;15.40;12.50;;;;;;;-2.62;100.00;97725.70;109537;1251;72464;-66
2023/11/28 04:43:37;;;;;;;15.50;11.50;;;;;;;-2.69;100.00;97730.14;109511;1251;59960;-68
2023/11/28 04:46:05;;;;;;;14.70;11.60;;;;;;;-2.75;100.00;97728.40;109537;1251;59822;-67
2023/11/28 04:48:32;;;;;;;15.90;12.10;;;;;;;-2.81;100.00;97731.02;109519;1250;75440;-70
2023/11/28 04:50:59;;;;;;;17.60;12.60;;;;;;;-2.91;100.00;97728.58;109576;1251;67683;-69
2023/11/28 04:53:26;;;;;;;16.20;12.50;;;;;;;-3.02;100.00;97728.48;109488;1251;73677;-67
2023/11/28 04:55:52;;;;;;;15.90;12.90;;;;;;;-3.13;100.00;97724.20;109523;1250;60418;-66
2023/11/28 04:58:19;;;;;;;19.80;13.40;;;;;;;-3.23;100.00;97724.70;109491;1251;60298;-69
2023/11/28 05:00:45;;;;;;;12.60;11.10;;;;;;;-3.31;100.00;97726.09;109455;1251;75693;-68
2023/11/28 05:03:12;;;;;;;14.80;12.30;;;;;;;-3.37;100.00;97731.73;109478;1251;67741;-70
2023/11/28 05:05:39;;;;;;;15.40;12.10;;;;;;;-3.40;100.00;97726.80;109476;1251;72671;-66
2023/11/28 05:08:06;;;;;;;15.70;12.00;;;;;;;-3.40;100.00;97728.02;109441;1251;59788;-66
2023/11/28 05:10:33;;;;;;;13.00;11.50;;;;;;;-3.40;100.00;97731.47;109471;1250;60297;-68
2023/11/28 05:13:00;;;;;;;14.00;12.10;;;;;;;-3.40;100.00;97731.69;109473;1251;75371;-67
2023/11/28 05:15:26;;;;;;;14.40;11.60;;;;;;;-3.43;100.00;97732.08;109470;1251;60117;-69
2023/11/28 05:17:53;;;;;;;12.50;10.60;;;;;;;-3.48;100.00;97733.55;109560;1251;72670;-69
2023/11/28 05:20:20;;;;;;;12.90;10.80;;;;;;;-3.50;100.00;97733.92;109407;1251;59915;-64
2023/11/28 05:22:47;;;;;;;13.70;11.00;;;;;;;-3.53;100.00;97730.11;109568;1251;59818;-69
2023/11/28 05:25:14;;;;;;;13.20;10.60;;;;;;;-3.53;100.00;97729.08;109586;1251;75488;-71
2023/11/28 05:27:40;;;;;;;17.60;12.00;;;;;;;-3.52;100.00;97726.07;109684;1250;65762;-68
2023/11/28 05:30:07;;;;;;;21.90;14.30;;;;;;;-3.52;100.00;97731.44;109523;1251;72385;-68
2023/11/28 05:32:34;;;;;;;27.30;16.10;;;;;;;-3.53;100.00;97733.63;109564;1251;59833;-68
2023/11/28 05:35:01;;;;;;;24.20;15.50;;;;;;;-3.54;100.00;97733.65;109609;1251;60104;-69
2023/11/28 05:37:30;;;;;;;24.00;15.60;;;;;;;-3.55;100.00;97734.43;109678;1251;73700;-66
2023/11/28 05:39:58;;;;;;;21.50;14.00;;;;;;;-3.56;100.00;97731.73;109574;1251;66531;-68
2023/11/28 05:42:26;;;;;;;18.90;13.30;;;;;;;-3.55;100.00;97737.60;109624;1251;72424;-68
2023/11/28 05:44:53;;;;;;;18.70;14.00;;;;;;;-3.56;100.00;97740.13;109547;1251;60575;-68
2023/11/28 05:47:20;;;;;;;17.60;13.20;;;;;;;-3.59;100.00;97746.38;109529;1251;60282;-68
2023/11/28 05:49:46;;;;;;;16.40;12.80;;;;;;;-3.60;100.00;97749.27;109652;1251;74335;-69
2023/11/28 05:52:13;;;;;;;16.50;13.00;;;;;;;-3.60;100.00;97748.59;109599;1251;65972;-65
2023/11/28 05:54:40;;;;;;;12.70;11.20;;;;;;;-3.52;100.00;97748.64;109588;1251;72515;-66
2023/11/28 05:57:07;;;;;;;13.70;11.10;;;;;;;-3.49;100.00;97744.70;109468;1254;60058;-67
2023/11/28 05:59:34;;;;;;;12.80;10.60;;;;;;;-3.47;100.00;97744.59;109542;1251;60009;-63
2023/11/28 06:02:03;;;;;;;13.30;11.50;;;;;;;-3.45;100.00;97748.92;109506;1251;75350;-63
2023/11/28 06:04:31;;;;;;;13.50;10.20;;;;;;;-3.45;100.00;97750.44;109576;1251;66258;-66
2023/11/28 06:07:00;;;;;;;12.40;9.70;;;;;;;-3.44;100.00;97752.77;109573;1254;72657;-65
2023/11/28 06:09:28;;;;;;;12.70;10.20;;;;;;;-3.44;100.00;97752.41;109534;1251;59694;-66
2023/11/28 06:11:55;;;;;;;11.70;9.90;;;;;;;-3.42;100.00;97747.56;109503;1250;60295;-63
2023/11/28 06:14:22;;;;;;;14.00;10.10;;;;;;;-3.39;100.00;97744.02;109568;1251;75404;-66
2023/11/28 06:16:50;;;;;;;12.10;9.50;;;;;;;-3.34;100.00;97741.54;109579;1251;65393;-65
2023/11/28 06:19:17;;;;;;;9.70;8.70;;;;;;;-3.27;100.00;97739.61;109677;1251;71419;-68
2023/11/28 06:21:47;;;;;;;11.00;9.10;;;;;;;-3.21;100.00;97737.02;109486;1251;60166;-66
2023/11/28 06:24:14;;;;;;;11.60;10.40;;;;;;;-3.15;100.00;97732.20;109641;1254;59803;-61
2023/11/28 06:26:41;;;;;;;12.90;10.50;;;;;;;-3.11;100.00;97734.76;109694;1251;75190;-66
2023/11/28 06:29:07;;;;;;;12.60;11.10;;;;;;;-3.07;100.00;97735.36;109649;1251;67657;-67
2023/11/28 06:31:34;;;;;;;11.90;9.60;;;;;;;-3.05;100.00;97726.89;109515;1251;72723;-69
2023/11/28 06:34:00;;;;;;;14.50;10.50;;;;;;;-3.06;100.00;97723.28;109581;1251;59732;-69
2023/11/28 06:36:27;;;;;;;14.60;10.60;;;;;;;-3.08;100.00;97722.58;109565;1251;60409;-67
2023/11/28 06:38:55;;;;;;;12.70;10.40;;;;;;;-3.06;100.00;97723.59;109592;1251;60108;-64
2023/11/28 06:41:22;;;;;;;12.10;10.00;;;;;;;-3.01;100.00;97718.47;109665;1251;67706;-65
2023/11/28 06:43:50;;;;;;;11.50;10.10;;;;;;;-2.96;100.00;97717.19;109645;1251;72592;-67
2023/11/28 06:46:19;;;;;;;13.10;11.20;;;;;;;-2.92;100.00;97716.88;109656;1251;59732;-66
2023/11/28 06:48:46;;;;;;;13.30;10.60;;;;;;;-2.90;100.00;97716.32;109652;1251;60376;-60
2023/11/28 06:51:12;;;;;;;12.20;10.70;;;;;;;-2.83;100.00;97712.13;109603;1251;75650;-69
2023/11/28 06:53:39;;;;;;;14.60;10.40;;;;;;;-2.71;100.00;97717.13;109618;1251;66628;-68
2023/11/28 06:56:06;;;;;;;12.00;9.70;;;;;;;-2.67;100.00;97714.30;109605;1254;70984;-65
2023/11/28 06:58:34;;;;;;;11.60;9.90;;;;;;;-2.63;100.00;97711.77;109503;1251;61040;-66
2023/11/28 07:01:01;;;;;;;10.60;9.00;;;;;;;-2.58;100.00;97710.84;109574;1251;59808;-66
2023/11/28 07:03:31;;;;;;;10.70;8.90;;;;;;;-2.52;100.00;97706.13;109570;1251;74152;-66
2023/11/28 07:05:58;;;;;;;10.80;8.90;;;;;;;-2.48;100.00;97700.47;109480;1255;68193;-66
2023/11/28 07:08:24;;;;;;;10.50;9.20;;;;;;;-2.46;100.00;97699.37;109498;1251;71966;-65
2023/11/28 07:10:52;;;;;;;14.00;11.50;;;;;;;-2.45;100.00;97700.83;109470;1251;59795;-66
2023/11/28 07:13:19;;;;;;;14.90;11.10;;;;;;;-2.46;100.00;97699.70;109496;1254;59793;-66
2023/11/28 07:15:46;;;;;;;15.10;11.30;;;;;;;-2.46;100.00;97695.39;109489;1251;74452;-66
2023/11/28 07:18:19;;;;;;;17.50;10.70;;;;;;;-2.47;100.00;97698.93;109562;1251;67131;-65
2023/11/28 07:20:49;;;;;;;13.50;10.50;;;;;;;-2.48;100.00;97702.11;109672;1251;71448;-66
2023/11/28 07:23:17;;;;;;;18.40;12.00;;;;;;;-2.45;100.00;97699.13;109658;1251;61206;-65
2023/11/28 07:25:47;;;;;;;12.80;10.10;;;;;;;-2.42;100.00;97698.52;109671;1251;59830;-65
2023/11/28 07:28:13;;;;;;;15.40;11.60;;;;;;;-2.41;100.00;97696.16;109701;1250;75335;-66
2023/11/28 07:30:40;;;;;;;14.60;11.60;;;;;;;-2.41;100.00;97697.69;109564;1251;66442;-65
2023/11/28 07:33:07;;;;;;;13.80;11.10;;;;;;;-2.40;100.00;97694.73;109640;1251;72651;-65
2023/11/28 07:35:34;;;;;;;15.30;12.30;;;;;;;-2.38;100.00;97698.16;109626;1251;59686;-65
2023/11/28 07:38:02;;;;;;;12.60;10.40;;;;;;;-2.37;100.00;97699.23;109689;1251;59710;-66
2023/11/28 07:40:30;;;;;;;11.60;9.40;;;;;;;-2.35;100.00;97695.46;109632;1251;75438;-66
2023/11/28 07:43:00;;;;;;;12.20;8.80;;;;;;;-2.32;100.00;97694.51;109641;1251;66327;-66
2023/11/28 07:45:27;;;;;;;13.20;8.60;;;;;;;-2.29;100.00;97691.82;109616;1250;71084;-67
2023/11/28 07:47:54;;;;;;;9.70;7.90;;;;;;;-2.27;100.00;97688.48;109601;1251;59764;-67
2023/11/28 07:50:20;;;;;;;10.60;8.70;;;;;;;-2.25;100.00;97690.77;109636;1250;59757;-67
2023/11/28 07:52:47;;;;;;;8.50;7.00;;;;;;;-2.24;100.00;97690.17;109593;1253;75279;-66
2023/11/28 07:55:13;;;;;;;10.80;9.20;;;;;;;-2.23;100.00;97692.11;109638;1250;66608;-66
2023/11/28 07:57:40;;;;;;;8.40;7.50;;;;;;;-2.21;100.00;97691.39;109608;1253;72350;-66
2023/11/28 08:00:07;;;;;;;8.90;7.80;;;;;;;-2.18;100.00;97692.34;109651;1251;60990;-65
2023/11/28 08:02:38;;;;;;;8.40;7.60;;;;;;;-2.15;100.00;97692.67;109672;1250;59767;-64
2023/11/28 08:05:05;;;;;;;9.90;8.00;;;;;;;-2.13;100.00;97690.05;109655;1251;75443;-64
2023/11/28 08:07:33;;;;;;;8.10;7.30;;;;;;;-2.10;100.00;97686.41;109606;1251;67718;-66
2023/11/28 08:10:00;;;;;;;9.40;8.40;;;;;;;-2.08;100.00;97680.67;109609;1251;71342;-67
2023/11/28 08:12:28;;;;;;;10.50;9.20;;;;;;;-2.06;100.00;97679.48;109658;1252;59735;-67
2023/11/28 08:14:54;;;;;;;11.30;9.60;;;;;;;-2.05;100.00;97679.23;109653;1251;59907;-66
2023/11/28 08:17:21;;;;;;;10.10;8.60;;;;;;;-2.03;100.00;97670.39;109689;1251;75236;-67
2023/11/28 08:19:47;;;;;;;10.70;9.60;;;;;;;-2.02;100.00;97671.00;109693;1251;67182;-67
2023/11/28 08:22:14;;;;;;;11.10;8.90;;;;;;;-2.00;100.00;97664.92;109639;1250;71254;-66
2023/11/28 08:24:40;;;;;;;9.90;8.80;;;;;;;-1.98;100.00;97666.27;109624;1251;59737;-66
2023/11/28 08:27:10;;;;;;;10.60;9.30;;;;;;;-1.96;100.00;97655.52;109634;1250;60173;-66
2023/11/28 08:29:36;;;;;;;10.90;9.30;;;;;;;-1.92;100.00;97655.29;109684;1250;74110;-66
2023/11/28 08:32:03;;;;;;;12.40;10.20;;;;;;;-1.87;100.00;97646.50;109634;1251;67898;-66
2023/11/28 08:34:30;;;;;;;11.00;9.90;;;;;;;-1.82;100.00;97641.37;109601;1251;72464;-66
2023/11/28 08:36:57;;;;;;;9.20;8.00;;;;;;;-1.77;100.00;97636.94;109640;1251;61125;-66
2023/11/28 08:39:23;;;;;;;9.40;8.20;;;;;;;-1.72;100.00;97639.06;109666;1251;59896;-67
2023/11/28 08:41:50;;;;;;;9.50;8.60;;;;;;;-1.70;100.00;97639.01;109582;1251;60337;-66
2023/11/28 08:44:16;;;;;;;11.90;8.60;;;;;;;-1.71;100.00;97638.80;109664;1250;67774;-66
2023/11/28 08:46:43;;;;;;;10.00;9.00;;;;;;;-1.72;100.00;97632.45;109641;1251;59710;-66
2023/11/28 08:49:09;;;;;;;10.10;9.10;;;;;;;-1.73;100.00;97628.92;109586;1251;59783;-67
2023/11/28 08:51:36;;;;;;;9.10;8.20;;;;;;;-1.74;100.00;97623.79;109595;1251;60126;-66
2023/11/28 08:54:02;;;;;;;11.20;8.70;;;;;;;-1.74;100.00;97619.80;109644;1251;75508;-66
2023/11/28 08:56:29;;;;;;;9.70;8.70;;;;;;;-1.74;100.00;97614.59;109622;1250;67639;-67
2023/11/28 08:58:56;;;;;;;9.30;8.00;;;;;;;-1.71;100.00;97612.04;109660;1252;72375;-67
2023/11/28 09:01:22;;;;;;;9.30;8.00;;;;;;;-1.68;100.00;97610.71;109643;1250;59831;-66
2023/11/28 09:03:50;;;;;;;8.70;7.80;;;;;;;-1.67;100.00;97605.39;109603;1251;60091;-66
2023/11/28 09:06:17;;;;;;;8.70;7.80;;;;;;;-1.66;100.00;97600.14;109639;1251;75171;-66
2023/11/28 09:08:44;;;;;;;10.50;8.00;;;;;;;-1.64;100.00;97594.54;109618;1251;67965;-67
2023/11/28 09:11:13;;;;;;;7.70;7.00;;;;;;;-1.58;100.00;97592.94;109617;1251;71856;-66
2023/11/28 09:13:40;;;;;;;8.10;7.10;;;;;;;-1.52;100.00;97593.77;109624;1251;59735;-66
2023/11/28 09:16:09;;;;;;;7.20;6.50;;;;;;;-1.48;100.00;97584.48;109645;1251;61305;-66
2023/11/28 09:18:36;;;;;;;8.40;7.50;;;;;;;-1.42;100.00;97582.55;109702;1251;75312;-66
2023/11/28 09:21:04;;;;;;;7.40;6.60;;;;;;;-1.35;100.00;97580.56;109678;1251;68274;-66
2023/11/28 09:23:31;;;;;;;8.30;7.10;;;;;;;-1.29;100.00;97575.27;109615;1251;71511;-66
2023/11/28 09:25:58;;;;;;;8.60;7.20;;;;;;;-1.23;100.00;97575.58;109588;1251;60944;-66
2023/11/28 09:28:37;;;;;;;10.20;7.60;;;;;;;-1.19;100.00;97573.86;109678;1251;59721;-66
2023/11/28 09:31:04;;;;;;;8.20;7.40;;;;;;;-1.16;100.00;97575.80;109700;1251;74679;-66
2023/11/28 09:33:31;;;;;;;7.10;6.40;;;;;;;-1.12;100.00;97570.08;109652;1254;67838;-66
2023/11/28 09:35:58;;;;;;;7.60;6.80;;;;;;;-1.11;100.00;97561.36;109642;1250;71211;-66
2023/11/28 09:38:24;;;;;;;7.90;7.00;;;;;;;-1.10;100.00;97560.59;109572;1251;60006;-67
2023/11/28 09:40:51;;;;;;;8.30;7.50;;;;;;;-1.08;100.00;97561.50;109676;1251;60068;-67
2023/11/28 09:43:20;;;;;;;8.40;7.60;;;;;;;-1.07;100.00;97556.52;109619;1251;75130;-67
2023/11/28 09:45:47;;;;;;;8.90;7.80;;;;;;;-1.05;100.00;97561.38;109615;1250;66968;-67
2023/11/28 09:48:14;;;;;;;9.30;8.40;;;;;;;-1.07;100.00;97564.14;109531;1250;72596;-67
2023/11/28 09:50:43;;;;;;;10.00;8.90;;;;;;;-1.09;100.00;97555.62;109502;1251;59820;-67
2023/11/28 09:53:10;;;;;;;11.30;9.20;;;;;;;-1.06;100.00;97559.16;109525;1251;59701;-66
2023/11/28 09:55:36;;;;;;;10.00;8.90;;;;;;;-1.01;100.00;97552.80;109442;1251;201695;-67
2023/11/28 09:58:03;;;;;;;11.00;8.40;;;;;;;-0.96;100.00;97549.17;109701;1251;60208;-65
2023/11/28 10:00:30;;;;;;;8.40;7.50;;;;;;;-0.90;100.00;97546.54;109584;1251;71426;-65
2023/11/28 10:02:56;;;;;;;7.90;7.10;;;;;;;-0.87;100.00;97543.75;109649;1251;59745;-65
2023/11/28 10:05:23;;;;;;;8.80;6.90;;;;;;;-0.86;100.00;97541.45;109654;1251;60383;-66
2023/11/28 10:07:54;;;;;;;7.60;6.80;;;;;;;-0.88;100.00;97537.95;109643;1251;75228;-67
2023/11/28 10:10:24;;;;;;;7.50;6.80;;;;;;;-0.87;100.00;97535.58;109645;1251;67699;-66
2023/11/28 10:12:52;;;;;;;9.40;7.30;;;;;;;-0.83;100.00;97530.30;109654;1251;71502;-66
2023/11/28 10:15:20;;;;;;;8.20;6.20;;;;;;;-0.80;100.00;97537.17;109675;1251;59782;-65
2023/11/28 10:17:48;;;;;;;7.60;6.60;;;;;;;-0.84;100.00;97530.12;109583;1251;60498;-65
2023/11/28 10:20:18;;;;;;;7.80;6.80;;;;;;;-0.88;100.00;97532.55;109646;1251;75463;-65
2023/11/28 10:22:49;;;;;;;7.10;6.30;;;;;;;-0.93;100.00;97528.12;109643;1251;67773;-65
2023/11/28 10:25:16;;;;;;;9.40;7.70;;;;;;;-0.95;100.00;97520.40;109614;1251;73416;-65
2023/11/28 10:27:46;;;;;;;9.70;8.30;;;;;;;-0.97;100.00;97521.29;109513;1251;61911;-65
2023/11/28 10:30:16;;;;;;;10.50;7.70;;;;;;;-0.99;100.00;97516.38;109693;1250;59725;-65
2023/11/28 10:32:42;;;;;;;11.90;9.50;;;;;;;-0.98;100.00;97511.30;109689;1251;76275;-65
2023/11/28 10:35:09;;;;;;;9.70;8.40;;;;;;;-0.96;100.00;97510.05;109665;1251;66590;-66
2023/11/28 10:37:36;;;;;;;10.00;8.00;;;;;;;-0.94;100.00;97507.20;109659;1250;72708;-65
2023/11/28 10:40:04;;;;;;;8.50;7.40;;;;;;;-0.91;100.00;97507.79;109615;1251;59726;-65
2023/11/28 10:42:31;;;;;;;7.90;6.20;;;;;;;-0.88;100.00;97510.11;109694;1251;60340;-65
2023/11/28 10:45:01;;;;;;;8.20;6.60;;;;;;;-0.87;100.00;97514.02;109650;1251;76474;-66
2023/11/28 10:47:31;;;;;;;8.20;7.10;;;;;;;-0.88;100.00;97512.23;109668;1250;68191;-66
2023/11/28 10:49:57;;;;;;;9.10;7.20;;;;;;;-0.91;100.00;97506.09;109663;1251;72351;-66
2023/11/28 10:52:27;;;;;;;9.40;7.20;;;;;;;-0.90;100.00;97506.64;109633;1250;61298;-66
2023/11/28 10:54:57;;;;;;;8.00;7.20;;;;;;;-0.87;100.00;97504.08;109563;1251;59714;-66
2023/11/28 10:57:30;;;;;;;7.20;6.50;;;;;;;-0.85;100.00;97505.66;109557;1250;75337;-66
2023/11/28 11:00:00;;;;;;;8.90;7.50;;;;;;;-0.84;100.00;97497.91;109661;1250;66748;-66
2023/11/28 11:02:27;;;;;;;9.10;7.00;;;;;;;-0.85;100.00;97494.31;109641;1250;70159;-66
2023/11/28 11:04:53;;;;;;;8.20;7.10;;;;;;;-0.89;100.00;97490.55;109658;1251;59755;-66
2023/11/28 11:07:20;;;;;;;8.80;7.30;;;;;;;-0.94;100.00;97485.08;109522;1251;59668;-66
2023/11/28 11:09:47;;;;;;;7.90;7.10;;;;;;;-0.97;100.00;97484.03;109533;1251;60071;-66